Time;durP1;ratioP1;P1;durP2;ratioP2;P2;SDS_P1;SDS_P2;PMS_P1;PMS_P2;Temp;Humidity;BMP_temperature;BMP_pressure;BME280_temperature;BME280_humidity;BME280_pressure;Samples;Min_cycle;Max_cycle;Signal;HPM_P1;HPM_P2
2024/02/08 00:00:32;;;;;;;12.38;6.13;;;6.50;99.90;;;;;;5065727;28;20104;-92
2024/02/08 00:02:58;;;;;;;18.23;6.80;;;6.50;99.90;;;;;;5054836;28;20057;-91
2024/02/08 00:05:26;;;;;;;18.77;6.00;;;7.30;99.90;;;;;;5055993;28;20063;-92
2024/02/08 00:07:51;;;;;;;17.80;7.45;;;6.90;99.90;;;;;;5034353;28;20029;-93
2024/02/08 00:10:17;;;;;;;19.08;7.30;;;7.40;99.90;;;;;;5037809;28;20049;-93
2024/02/08 00:12:43;;;;;;;16.70;6.28;;;7.10;99.90;;;;;;5045049;28;20025;-92
2024/02/08 00:15:11;;;;;;;18.95;6.18;;;7.40;99.90;;;;;;5054432;28;20021;-93
2024/02/08 00:17:36;;;;;;;17.20;6.97;;;7.30;99.90;;;;;;5038984;28;20028;-92
2024/02/08 00:20:03;;;;;;;17.35;6.68;;;6.70;99.90;;;;;;5049486;28;20021;-92
2024/02/08 00:22:28;;;;;;;18.25;6.85;;;6.20;99.90;;;;;;5052812;28;20029;-93
2024/02/08 00:24:55;;;;;;;13.18;5.75;;;6.10;99.90;;;;;;5042479;28;20069;-91
2024/02/08 00:27:21;;;;;;;16.80;5.63;;;7.20;99.90;;;;;;5045580;28;20063;-93
2024/02/08 00:29:47;;;;;;;16.33;6.05;;;7.30;99.90;;;;;;5050653;28;20060;-92
2024/02/08 00:32:12;;;;;;;23.05;5.97;;;6.20;99.90;;;;;;5055506;28;20477;-93
2024/02/08 00:34:40;;;;;;;12.80;5.47;;;6.20;99.90;;;;;;5055298;28;20029;-92
2024/02/08 00:37:06;;;;;;;16.90;6.10;;;6.10;99.90;;;;;;5055016;28;20021;-91
2024/02/08 00:39:32;;;;;;;14.38;5.45;;;6.10;99.90;;;;;;5055646;28;20079;-92
2024/02/08 00:41:58;;;;;;;13.35;4.90;;;5.30;99.90;;;;;;5058035;28;20025;-93
2024/02/08 00:44:27;;;;;;;7.82;5.13;;;6.00;99.90;;;;;;5064532;28;20084;-93
2024/02/08 00:46:54;;;;;;;12.25;4.97;;;7.00;99.90;;;;;;5069410;28;20055;-90
2024/02/08 00:49:21;;;;;;;8.27;5.13;;;6.60;99.90;;;;;;5064701;28;20029;-90
2024/02/08 00:51:49;;;;;;;14.00;5.15;;;5.90;99.90;;;;;;5054834;28;20061;-91
2024/02/08 00:54:15;;;;;;;13.82;5.43;;;5.90;99.90;;;;;;5052782;28;20025;-91
2024/02/08 00:56:42;;;;;;;15.88;5.10;;;5.90;99.90;;;;;;5050689;28;20079;-92
2024/02/08 00:59:08;;;;;;;16.67;6.20;;;7.00;99.90;;;;;;5054788;28;20021;-91
2024/02/08 01:01:33;;;;;;;16.13;6.75;;;7.10;99.90;;;;;;5044783;28;20480;-90
2024/02/08 01:04:14;;;;;;;14.32;5.82;;;7.00;99.90;;;;;;5050960;28;20079;-91
2024/02/08 01:06:40;;;;;;;22.35;5.40;;;6.20;99.90;;;;;;5035064;28;20026;-89
2024/02/08 01:09:07;;;;;;;13.88;4.85;;;6.30;99.90;;;;;;5046270;28;20141;-90
2024/02/08 01:11:34;;;;;;;21.83;5.38;;;7.10;99.90;;;;;;5048204;28;20041;-90
2024/02/08 01:14:01;;;;;;;15.88;5.60;;;7.20;99.90;;;;;;5049048;28;20349;-91
2024/02/08 01:16:30;;;;;;;14.25;5.20;;;7.40;99.90;;;;;;5053323;28;20025;-90
2024/02/08 01:18:55;;;;;;;14.20;4.75;;;6.10;99.90;;;;;;5046934;28;20047;-91
2024/02/08 01:21:22;;;;;;;11.75;5.03;;;6.80;99.90;;;;;;5053931;28;20025;-93
2024/02/08 01:23:48;;;;;;;10.52;5.18;;;7.10;99.90;;;;;;5039547;28;20111;-93
2024/02/08 01:26:15;;;;;;;11.88;4.63;;;6.10;99.90;;;;;;5054172;28;20170;-93
2024/02/08 01:28:41;;;;;;;10.77;4.45;;;6.00;99.90;;;;;;5054011;28;20039;-93
2024/02/08 01:31:07;;;;;;;10.57;4.57;;;6.10;99.90;;;;;;5041425;28;20028;-92
2024/02/08 01:33:36;;;;;;;11.85;4.97;;;6.00;99.90;;;;;;5054035;28;20492;-93
2024/02/08 01:36:04;;;;;;;17.55;5.00;;;6.00;99.90;;;;;;5043393;28;20037;-93
2024/02/08 01:38:30;;;;;;;13.75;6.03;;;6.00;99.90;;;;;;5071616;23;20052;-93
2024/02/08 01:40:56;;;;;;;13.23;4.15;;;7.10;99.90;;;;;;5057461;28;20377;-94
2024/02/08 01:43:22;;;;;;;14.35;6.25;;;6.20;99.90;;;;;;5048102;28;20568;-93
2024/02/08 01:45:50;;;;;;;12.70;5.20;;;7.50;99.90;;;;;;5055805;28;20029;-94
2024/02/08 01:48:17;;;;;;;9.45;4.68;;;7.20;99.90;;;;;;5062070;28;20048;-94
2024/02/08 01:50:56;;;;;;;13.05;4.88;;;5.90;99.90;;;;;;5060127;28;20135;-93
2024/02/08 01:53:27;;;;;;;18.42;5.85;;;6.00;99.90;;;;;;5058096;28;20021;-94
2024/02/08 01:55:54;;;;;;;16.45;5.20;;;5.10;99.90;;;;;;5057418;28;20511;-93
2024/02/08 01:58:21;;;;;;;10.60;4.82;;;6.20;99.90;;;;;;5064749;28;20562;-93
2024/02/08 02:00:49;;;;;;;11.43;4.75;;;6.60;99.90;;;;;;5050798;28;20047;-94
2024/02/08 02:03:16;;;;;;;12.45;4.90;;;6.00;99.90;;;;;;5056848;28;20048;-92
2024/02/08 02:05:42;;;;;;;16.08;5.88;;;7.00;99.90;;;;;;5055352;28;20029;-92
2024/02/08 02:08:13;;;;;;;17.33;5.85;;;7.00;99.90;;;;;;5058351;28;20032;-92
2024/02/08 02:10:41;;;;;;;15.07;5.57;;;6.20;99.90;;;;;;5060401;28;20079;-91
2024/02/08 02:13:10;;;;;;;17.73;5.72;;;7.20;99.90;;;;;;5063220;28;20036;-93
2024/02/08 02:15:37;;;;;;;13.57;5.67;;;5.00;99.90;;;;;;5052760;28;20032;-93
2024/02/08 02:18:07;;;;;;;15.77;5.43;;;6.70;99.90;;;;;;5067358;28;20271;-93
2024/02/08 02:20:33;;;;;;;19.30;6.75;;;6.10;99.90;;;;;;5065416;28;20092;-94
2024/02/08 02:23:00;;;;;;;14.27;6.07;;;6.70;99.90;;;;;;5065047;28;20025;-94
2024/02/08 02:25:32;;;;;;;15.32;5.78;;;5.80;99.90;;;;;;5068133;28;20036;-93
2024/02/08 02:28:00;;;;;;;12.20;5.85;;;7.40;99.90;;;;;;5070982;28;20025;-93
2024/02/08 02:30:29;;;;;;;13.55;5.90;;;6.20;99.90;;;;;;5064314;28;20055;-92
2024/02/08 02:32:59;;;;;;;14.80;5.55;;;7.10;99.90;;;;;;5073514;28;20013;-93
2024/02/08 02:35:26;;;;;;;17.67;5.72;;;6.40;99.90;;;;;;5071488;28;20029;-92
2024/02/08 02:37:52;;;;;;;8.45;4.47;;;6.10;99.90;;;;;;5063137;28;20032;-93
2024/02/08 02:40:24;;;;;;;15.05;5.15;;;6.10;99.90;;;;;;5058853;28;20052;-91
2024/02/08 02:42:51;;;;;;;18.75;4.95;;;6.20;99.90;;;;;;5068601;28;20032;-92
2024/02/08 02:45:21;;;;;;;10.82;5.07;;;7.10;99.90;;;;;;5069058;28;20464;-93
2024/02/08 02:47:53;;;;;;;16.98;5.70;;;6.80;99.90;;;;;;5059190;28;20029;-93
2024/02/08 02:50:22;;;;;;;13.18;4.90;;;7.60;99.90;;;;;;5053456;28;20064;-92
2024/02/08 02:52:49;;;;;;;16.92;5.75;;;6.10;99.90;;;;;;5055330;28;20032;-92
2024/02/08 02:55:16;;;;;;;15.55;5.78;;;7.10;99.90;;;;;;5043034;28;20031;-93
2024/02/08 02:57:41;;;;;;;13.95;5.78;;;6.00;99.90;;;;;;5056146;28;20135;-92
2024/02/08 03:00:21;;;;;;;17.00;6.53;;;7.00;99.90;;;;;;5050772;28;20033;-94
2024/02/08 03:03:03;;;;;;;17.83;5.53;;;6.20;99.90;;;;;;5042293;28;20033;-93
2024/02/08 03:05:30;;;;;;;17.17;5.55;;;6.10;99.90;;;;;;5067971;28;20025;-93
2024/02/08 03:07:58;;;;;;;11.45;5.88;;;6.00;99.90;;;;;;5071290;28;20029;-92
2024/02/08 03:10:23;;;;;;;14.25;5.47;;;6.60;99.90;;;;;;5072617;28;20056;-92
2024/02/08 03:12:52;;;;;;;15.70;5.10;;;7.50;99.90;;;;;;5051919;28;20021;-93
2024/02/08 03:15:19;;;;;;;11.07;4.97;;;6.90;99.90;;;;;;5053013;28;20021;-92
2024/02/08 03:17:45;;;;;;;12.30;5.22;;;6.80;99.90;;;;;;5036288;28;20385;-93
2024/02/08 03:20:17;;;;;;;12.40;4.80;;;6.80;99.90;;;;;;5053250;28;20028;-94
2024/02/08 03:22:46;;;;;;;11.60;4.10;;;7.00;99.90;;;;;;5043528;28;20036;-92
2024/02/08 03:25:14;;;;;;;10.02;4.10;;;7.50;99.90;;;;;;5036984;28;20029;-92
2024/02/08 03:27:44;;;;;;;14.65;4.10;;;6.60;99.90;;;;;;5038088;28;20366;-92
2024/02/08 03:30:19;;;;;;;14.15;4.25;;;6.10;99.90;;;;;;5039836;28;20033;-92
2024/02/08 03:32:55;;;;;;;11.50;4.03;;;6.20;99.90;;;;;;5052273;28;20029;-93
2024/02/08 03:35:36;;;;;;;11.80;3.92;;;7.40;99.90;;;;;;5052289;28;20021;-91
2024/02/08 03:38:01;;;;;;;9.65;4.15;;;7.40;99.90;;;;;;5069042;28;20032;-92
2024/02/08 03:40:32;;;;;;;12.00;3.88;;;6.10;99.90;;;;;;5047541;28;20061;-92
2024/02/08 03:43:01;;;;;;;11.32;4.07;;;5.60;99.90;;;;;;5042232;28;20036;-92
2024/02/08 03:45:30;;;;;;;10.82;4.00;;;6.10;99.90;;;;;;5051550;28;20029;-93
2024/02/08 03:47:59;;;;;;;12.65;4.30;;;6.00;99.90;;;;;;5052409;28;20021;-93
2024/02/08 03:50:33;;;;;;;8.18;4.00;;;7.20;99.90;;;;;;5038539;28;20024;-93
2024/02/08 03:53:03;;;;;;;10.93;4.50;;;6.90;99.90;;;;;;5052231;28;20052;-93
2024/02/08 03:55:28;;;;;;;12.75;5.15;;;7.30;99.90;;;;;;5052210;28;20496;-91
2024/02/08 03:58:00;;;;;;;11.45;4.38;;;7.20;99.90;;;;;;5051749;28;20024;-93
2024/02/08 04:00:28;;;;;;;10.63;4.55;;;6.90;99.90;;;;;;5045097;28;20119;-93
2024/02/08 04:02:59;;;;;;;9.05;5.45;;;6.70;99.90;;;;;;5040704;28;20018;-92
2024/02/08 04:05:42;;;;;;;15.98;5.07;;;6.10;99.90;;;;;;5043127;28;20078;-91
2024/02/08 04:54:43;;;;;;;18.13;9.45;;;6.00;99.90;;;;;;5054282;28;20437;-92
2024/02/08 04:57:09;;;;;;;24.15;9.30;;;6.00;99.90;;;;;;5054458;28;20033;-91
2024/02/08 04:59:42;;;;;;;22.90;9.55;;;5.90;99.90;;;;;;5052878;28;20025;-91
2024/02/08 05:02:09;;;;;;;24.95;9.68;;;5.90;99.90;;;;;;5055121;28;20498;-93
2024/02/08 05:04:35;;;;;;;21.42;10.68;;;5.90;99.90;;;;;;5055503;28;20037;-93
2024/02/08 05:07:06;;;;;;;22.98;9.70;;;5.90;99.90;;;;;;5055028;28;20052;-92
2024/02/08 05:09:32;;;;;;;23.50;10.32;;;6.00;99.90;;;;;;5041427;28;20032;-94
2024/02/08 05:12:13;;;;;;;20.65;9.95;;;6.00;99.90;;;;;;5055672;28;20449;-93
2024/02/08 05:14:39;;;;;;;30.08;11.15;;;5.20;99.90;;;;;;5054253;28;20025;-92
2024/02/08 05:17:08;;;;;;;23.77;10.05;;;7.10;99.90;;;;;;5055529;28;20017;-92
2024/02/08 05:19:34;;;;;;;24.17;9.77;;;7.30;99.90;;;;;;5049800;28;20048;-87
2024/02/08 05:22:02;;;;;;;25.60;9.52;;;7.30;99.90;;;;;;5059096;28;20027;-92
2024/02/08 05:24:30;;;;;;;27.77;10.45;;;6.00;99.90;;;;;;5065387;28;20025;-93
2024/02/08 05:27:12;;;;;;;22.52;10.43;;;6.00;99.90;;;;;;5064441;28;20032;-93
2024/02/08 05:29:41;;;;;;;24.65;10.68;;;5.90;99.90;;;;;;5061243;28;20045;-93
2024/02/08 05:32:09;;;;;;;20.70;9.68;;;5.00;99.90;;;;;;5073463;28;20110;-92
2024/02/08 05:34:40;;;;;;;27.23;10.30;;;7.30;99.90;;;;;;5066113;28;20040;-92
2024/02/08 05:37:05;;;;;;;;;;;6.50;99.90;;;;;;5064873;28;20001;-91
2024/02/08 05:39:31;;;;;;;20.70;9.18;;;7.00;99.90;;;;;;5071478;28;19983;-92
2024/02/08 05:41:57;;;;;;;27.75;10.50;;;6.00;99.90;;;;;;5069721;28;20180;-93
2024/02/08 05:44:29;;;;;;;25.30;10.45;;;6.00;99.90;;;;;;5062996;28;20047;-91
2024/02/08 05:46:56;;;;;;;20.20;9.35;;;6.10;99.90;;;;;;5049227;28;20043;-93
2024/02/08 05:49:25;;;;;;;23.42;9.50;;;6.50;99.90;;;;;;5057778;28;20021;-91
2024/02/08 05:51:54;;;;;;;24.45;9.25;;;6.10;99.90;;;;;;5055753;28;20477;-92
2024/02/08 05:54:20;;;;;;;19.90;10.00;;;6.10;99.90;;;;;;5053709;28;20032;-93
2024/02/08 05:56:47;;;;;;;25.48;11.05;;;6.20;99.90;;;;;;5047174;28;20024;-92
2024/02/08 05:59:17;;;;;;;38.53;12.73;;;6.20;99.90;;;;;;5053965;28;20028;-93
2024/02/08 06:01:51;;;;;;;34.28;13.38;;;7.30;99.90;;;;;;5043939;28;20033;-91
2024/02/08 06:04:22;;;;;;;27.88;12.65;;;6.00;99.90;;;;;;5044412;28;20026;-91
2024/02/08 06:06:53;;;;;;;34.05;12.77;;;6.70;99.90;;;;;;5051111;28;20033;-90
2024/02/08 06:12:16;;;;;;;27.48;12.52;;;5.90;99.90;;;;;;5060918;28;19919;-92
2024/02/08 06:14:44;;;;;;;23.70;11.88;;;5.90;99.90;;;;;;5065702;28;20485;-91
2024/02/08 06:17:10;;;;;;;36.72;14.50;;;5.90;99.90;;;;;;5061279;28;20120;-92
2024/02/08 06:19:50;;;;;;;31.05;12.95;;;5.80;99.90;;;;;;5060684;28;20473;-91
2024/02/08 06:22:25;;;;;;;29.55;12.68;;;5.80;99.90;;;;;;5056822;28;20033;-90
2024/02/08 06:24:54;;;;;;;29.80;13.30;;;5.70;99.90;;;;;;5052972;28;20084;-91
2024/02/08 06:27:25;;;;;;;29.02;13.48;;;5.80;99.90;;;;;;5043017;28;20047;-90
2024/02/08 06:29:51;;;;;;;31.60;13.10;;;5.80;99.90;;;;;;5043256;28;20135;-92
2024/02/08 06:32:23;;;;;;;35.58;14.35;;;5.60;99.90;;;;;;5052139;28;20037;-92
2024/02/08 06:35:09;;;;;;;35.00;13.00;;;5.50;99.90;;;;;;5051245;28;20484;-91
2024/02/08 06:37:45;;;;;;;33.00;14.23;;;5.50;99.90;;;;;;5037971;28;20025;-92
2024/02/08 06:40:21;;;;;;;38.10;13.98;;;5.50;99.90;;;;;;5048761;28;20492;-90
2024/02/08 06:45:25;;;;;;;35.47;14.30;;;5.40;99.90;;;;;;5050649;28;20048;-91
2024/02/08 07:37:26;;;;;;;32.42;10.13;;;5.50;99.90;;;;;;5053185;28;20036;-92
2024/02/08 07:39:53;;;;;;;30.85;8.80;;;5.60;99.90;;;;;;5056391;28;20045;-92
2024/02/08 07:43:34;;;;;;;25.20;9.55;;;5.60;99.90;;;;;;5058534;28;20036;-93
2024/02/08 07:45:29;;;;;;;23.55;8.75;;;5.50;99.90;;;;;;5040788;28;20128;-93
2024/02/08 07:48:08;;;;;;;24.67;8.43;;;5.80;99.90;;;;;;5056673;28;20025;-92
2024/02/08 07:50:44;;;;;;;24.05;8.05;;;6.70;99.90;;;;;;5050825;28;20021;-92
2024/02/08 07:53:34;;;;;;;22.35;8.60;;;5.50;99.90;;;;;;5050107;28;20041;-92
2024/02/08 07:56:25;;;;;;;23.15;8.90;;;5.60;99.90;;;;;;5067389;28;20751;-93
2024/02/08 07:59:16;;;;;;;21.40;8.27;;;5.50;99.90;;;;;;5061401;28;20103;-93
2024/02/08 08:01:53;;;;;;;30.70;8.63;;;4.20;99.90;;;;;;5057020;28;20135;-91
2024/02/08 08:07:22;;;;;;;25.85;8.05;;;6.50;99.90;;;;;;5034297;28;20037;-93
2024/02/08 08:09:49;;;;;;;20.35;7.80;;;6.40;99.90;;;;;;5089415;28;20025;-92
2024/02/08 08:12:19;;;;;;;23.73;7.70;;;6.20;99.90;;;;;;5080908;28;20021;-95
2024/02/08 08:17:40;;;;;;;20.95;8.02;;;5.50;99.90;;;;;;5059839;28;20033;-93
2024/02/08 08:20:15;;;;;;;20.88;7.38;;;4.70;99.90;;;;;;5049486;28;20053;-94
2024/02/08 08:22:58;;;;;;;27.70;6.97;;;5.50;99.90;;;;;;5068258;28;20067;-92
2024/02/08 08:25:44;;;;;;;24.00;7.68;;;4.80;99.90;;;;;;5052306;28;20480;-89
2024/02/08 08:28:10;;;;;;;19.40;6.65;;;5.50;99.90;;;;;;5041554;28;20113;-93
2024/02/08 08:30:39;;;;;;;20.08;6.50;;;5.50;99.90;;;;;;5047535;28;20120;-92
2024/02/08 08:40:48;;;;;;;16.20;5.80;;;5.50;99.90;;;;;;5048436;28;20110;-89
2024/02/08 08:43:20;;;;;;;22.45;6.63;;;6.40;99.90;;;;;;5044298;28;20020;-89
2024/02/08 08:45:50;;;;;;;17.30;7.03;;;5.60;99.90;;;;;;5054713;28;20477;-91
2024/02/08 08:48:19;;;;;;;18.48;5.80;;;5.50;99.90;;;;;;5056687;28;20017;-89
2024/02/08 08:50:54;;;;;;;19.02;6.68;;;5.50;99.90;;;;;;5049417;28;20053;-91
2024/02/08 08:53:35;;;;;;;23.10;5.65;;;5.50;99.90;;;;;;5054513;28;20380;-89
2024/02/08 08:56:03;;;;;;;14.43;5.30;;;5.50;99.90;;;;;;5054724;28;20033;-87
2024/02/08 08:58:38;;;;;;;20.38;6.13;;;5.50;99.90;;;;;;5058107;28;20025;-92
2024/02/08 09:01:21;;;;;;;18.13;5.78;;;5.50;99.90;;;;;;5052178;28;20033;-92
2024/02/08 09:03:55;;;;;;;19.88;5.47;;;6.70;99.90;;;;;;5050660;28;20029;-91
2024/02/08 09:06:27;;;;;;;10.68;5.32;;;5.40;99.90;;;;;;5058258;28;20039;-91
2024/02/08 09:08:58;;;;;;;18.15;5.75;;;6.50;99.90;;;;;;5061995;28;20053;-94
2024/02/08 09:11:27;;;;;;;18.45;5.75;;;6.30;99.90;;;;;;5057800;28;20037;-90
2024/02/08 09:13:54;;;;;;;19.23;6.18;;;5.40;99.90;;;;;;5054595;28;20021;-86
2024/02/08 09:16:29;;;;;;;24.05;5.57;;;5.50;99.90;;;;;;5050982;28;20097;-91
2024/02/08 09:21:31;;;;;;;14.57;5.13;;;5.60;99.90;;;;;;5044520;28;20040;-84
2024/02/08 09:23:58;;;;;;;12.63;5.13;;;5.50;99.90;;;;;;5055322;28;20028;-83
2024/02/08 09:26:39;;;;;;;25.38;6.00;;;5.50;99.90;;;;;;5038674;28;20061;-86
2024/02/08 09:29:11;;;;;;;17.70;5.43;;;5.60;99.90;;;;;;5033659;28;20307;-84
2024/02/08 09:31:38;;;;;;;28.73;5.05;;;5.60;99.90;;;;;;5043319;28;20405;-85
2024/02/08 09:34:14;;;;;;;17.60;5.10;;;6.70;99.90;;;;;;5048875;28;20127;-84
2024/02/08 09:36:42;;;;;;;14.98;5.43;;;5.60;99.90;;;;;;5051392;28;20032;-88
2024/02/08 09:39:14;;;;;;;11.35;4.60;;;5.50;99.90;;;;;;5051926;28;20044;-89
2024/02/08 09:41:44;;;;;;;14.93;4.78;;;5.60;99.90;;;;;;5046643;28;20044;-87
2024/02/08 09:44:14;;;;;;;17.48;4.75;;;5.60;99.90;;;;;;5052754;28;20037;-87
2024/02/08 09:49:13;;;;;;;22.60;5.43;;;5.60;99.90;;;;;;5052763;28;20027;-86
2024/02/08 09:51:52;;;;;;;19.77;5.45;;;5.60;99.90;;;;;;5051825;28;20083;-86
2024/02/08 09:54:37;;;;;;;14.70;5.75;;;5.60;99.90;;;;;;5052130;28;20175;-87
2024/02/08 09:57:21;;;;;;;13.80;5.85;;;5.50;99.90;;;;;;5053766;28;20025;-87
2024/02/08 10:00:07;;;;;;;17.30;5.70;;;5.60;99.90;;;;;;5052478;28;20038;-88
2024/02/08 10:02:33;;;;;;;19.10;4.95;;;5.60;99.90;;;;;;5051909;28;20029;-87
2024/02/08 10:05:19;;;;;;;21.60;5.63;;;5.60;99.90;;;;;;5037747;28;20064;-86
2024/02/08 10:08:05;;;;;;;19.40;6.35;;;5.60;99.90;;;;;;5032189;28;20026;-88
2024/02/08 10:10:33;;;;;;;18.45;6.32;;;5.60;99.90;;;;;;5043207;28;20384;-87
2024/02/08 10:13:05;;;;;;;17.98;6.55;;;5.60;99.90;;;;;;5050636;28;20032;-87
2024/02/08 10:15:43;;;;;;;19.20;6.18;;;5.60;99.90;;;;;;5052206;28;20029;-87
2024/02/08 10:18:22;;;;;;;18.77;6.45;;;5.60;99.90;;;;;;5052821;28;20037;-86
2024/02/08 10:20:48;;;;;;;16.40;6.32;;;5.60;99.90;;;;;;5052657;28;20380;-86
2024/02/08 10:23:33;;;;;;;25.98;6.72;;;5.60;99.90;;;;;;5037617;28;20488;-93
2024/02/08 10:28:53;;;;;;;19.33;5.18;;;5.50;99.90;;;;;;5056427;28;20426;-82
2024/02/08 10:31:24;;;;;;;20.85;6.47;;;5.60;99.90;;;;;;5052507;28;20090;-88
2024/02/08 10:33:57;;;;;;;16.02;5.75;;;5.60;99.90;;;;;;5053263;28;20127;-90
2024/02/08 10:36:30;;;;;;;18.85;6.38;;;5.50;99.90;;;;;;5053962;28;20077;-89
2024/02/08 10:39:03;;;;;;;22.20;6.32;;;5.60;99.90;;;;;;5053655;28;20041;-91
2024/02/08 10:41:40;;;;;;;18.25;6.53;;;5.70;99.90;;;;;;5053642;28;20492;-91
2024/02/08 10:44:15;;;;;;;25.75;6.05;;;5.60;99.90;;;;;;5046903;28;20427;-83
2024/02/08 10:46:44;;;;;;;21.42;6.55;;;5.70;99.90;;;;;;5043818;28;20040;-88
2024/02/08 10:49:11;;;;;;;19.58;7.20;;;5.70;99.90;;;;;;5033752;28;20021;-89
2024/02/08 10:51:37;;;;;;;21.10;6.57;;;5.70;99.90;;;;;;5037884;28;20038;-88
2024/02/08 10:54:08;;;;;;;25.23;7.15;;;5.70;99.90;;;;;;5032855;28;20028;-89
2024/02/08 10:56:44;;;;;;;16.90;5.70;;;5.90;99.90;;;;;;5031511;28;20160;-89
2024/02/08 10:59:13;;;;;;;25.85;7.15;;;5.70;99.90;;;;;;5032043;28;20017;-91
2024/02/08 11:04:30;;;;;;;17.77;6.57;;;5.60;99.90;;;;;;5036572;28;20032;-89
2024/02/08 11:07:16;;;;;;;25.77;7.80;;;5.60;99.90;;;;;;5046843;28;20036;-90
2024/02/08 11:09:44;;;;;;;15.70;5.65;;;5.60;99.90;;;;;;5048828;28;20037;-86
2024/02/08 11:12:18;;;;;;;103.18;11.55;;;5.70;99.90;;;;;;5041214;28;20037;-82
2024/02/08 11:15:14;;;;;;;17.13;6.97;;;5.70;99.90;;;;;;5036415;28;20358;-87
2024/02/08 11:17:52;;;;;;;17.38;6.25;;;5.70;99.90;;;;;;5052515;28;20090;-93
2024/02/08 11:20:33;;;;;;;24.65;8.18;;;5.90;99.90;;;;;;5047437;28;20036;-88
2024/02/08 11:23:31;;;;;;;19.83;7.00;;;6.10;99.90;;;;;;5051831;28;20024;-85
2024/02/08 11:26:06;;;;;;;18.52;8.10;;;6.00;99.90;;;;;;5034396;28;20056;-89
2024/02/08 11:28:44;;;;;;;22.45;6.65;;;5.90;99.90;;;;;;5044780;28;20029;-92
2024/02/08 11:31:13;;;;;;;18.77;6.70;;;5.80;99.90;;;;;;5039740;28;20037;-85
2024/02/08 11:33:42;;;;;;;20.42;7.30;;;5.70;99.90;;;;;;5033862;28;20033;-86
2024/02/08 11:36:16;;;;;;;16.95;6.93;;;5.70;99.90;;;;;;5030956;28;20090;-85
2024/02/08 11:38:46;;;;;;;13.98;6.28;;;5.60;99.90;;;;;;5034713;28;20037;-84
2024/02/08 11:41:20;;;;;;;17.60;6.32;;;5.60;99.90;;;;;;5050028;28;20041;-87
2024/02/08 11:43:51;;;;;;;17.85;6.32;;;5.50;99.90;;;;;;5049236;28;20037;-86
2024/02/08 11:46:21;;;;;;;13.82;5.97;;;5.40;99.90;;;;;;5044223;28;20052;-86
2024/02/08 11:48:47;;;;;;;;;;;5.40;99.90;;;;;;5046949;28;20464;-84
2024/02/08 11:51:17;;;;;;;12.57;7.28;;;5.30;99.90;;;;;;5046366;28;19920;-85
2024/02/08 11:53:46;;;;;;;14.13;5.43;;;5.30;99.90;;;;;;5047510;28;20021;-85
2024/02/08 11:56:15;;;;;;;13.57;6.43;;;5.30;99.90;;;;;;5033780;28;20030;-86
2024/02/08 11:58:43;;;;;;;12.65;6.13;;;5.30;99.90;;;;;;5027119;28;20029;-84
2024/02/08 12:01:14;;;;;;;13.13;5.97;;;5.20;99.90;;;;;;5029887;28;20129;-85
2024/02/08 12:03:43;;;;;;;20.98;5.50;;;5.30;99.90;;;;;;5030139;28;20504;-84
2024/02/08 12:06:17;;;;;;;13.77;5.28;;;5.20;99.90;;;;;;5031116;28;20095;-85
2024/02/08 12:08:57;;;;;;;14.52;5.53;;;5.20;99.90;;;;;;5031407;28;20105;-84
2024/02/08 12:11:24;;;;;;;20.40;7.22;;;5.20;99.90;;;;;;5037508;28;20044;-85
2024/02/08 12:13:53;;;;;;;11.88;4.85;;;5.10;99.90;;;;;;5046118;28;20108;-84
2024/02/08 12:16:18;;;;;;;23.25;6.13;;;5.10;99.90;;;;;;5035640;28;20029;-84
2024/02/08 12:18:44;;;;;;;18.77;7.45;;;5.10;99.90;;;;;;5033722;28;20082;-85
2024/02/08 12:21:17;;;;;;;17.48;5.43;;;5.10;99.90;;;;;;5046801;28;20491;-85
2024/02/08 12:23:43;;;;;;;15.98;5.47;;;5.00;99.90;;;;;;5041718;28;20036;-85
2024/02/08 12:26:12;;;;;;;13.85;5.05;;;4.90;99.90;;;;;;5042821;28;20025;-84
2024/02/08 12:28:42;;;;;;;12.25;4.43;;;4.90;99.90;;;;;;5050454;28;20471;-84
2024/02/08 12:31:16;;;;;;;;;;;4.90;99.90;;;;;;5048426;28;20051;-84
2024/02/08 12:33:45;;;;;;;8.98;4.40;;;4.90;99.90;;;;;;5033393;28;19969;-84
2024/02/08 12:36:12;;;;;;;10.90;5.30;;;4.90;99.90;;;;;;5049643;28;20439;-84
2024/02/08 12:38:38;;;;;;;12.80;4.75;;;4.90;99.90;;;;;;5048836;28;20029;-84
2024/02/08 12:41:06;;;;;;;9.23;5.10;;;4.90;99.90;;;;;;5045919;28;20028;-84
2024/02/08 12:43:33;;;;;;;11.43;4.85;;;5.00;99.90;;;;;;5043114;28;20154;-84
2024/02/08 12:45:59;;;;;;;15.90;5.72;;;4.90;99.90;;;;;;5048827;28;20036;-84
2024/02/08 12:48:29;;;;;;;12.02;4.97;;;4.90;99.90;;;;;;5047726;28;20400;-84
2024/02/08 12:50:55;;;;;;;14.90;4.97;;;5.00;99.90;;;;;;5030441;28;20489;-84
2024/02/08 12:53:21;;;;;;;13.70;5.43;;;4.90;99.90;;;;;;5048409;28;20056;-84
2024/02/08 12:55:47;;;;;;;11.95;5.03;;;4.90;99.90;;;;;;5050855;28;20134;-84
2024/02/08 12:58:16;;;;;;;16.83;5.40;;;4.80;99.90;;;;;;5050251;28;20469;-84
2024/02/08 13:00:45;;;;;;;12.73;4.30;;;4.80;99.90;;;;;;5047770;28;20063;-84
2024/02/08 13:03:11;;;;;;;14.40;4.47;;;4.80;99.90;;;;;;5053726;28;20086;-83
2024/02/08 13:05:38;;;;;;;13.75;5.18;;;4.80;99.90;;;;;;5053769;28;20017;-83
2024/02/08 13:08:06;;;;;;;16.30;5.85;;;4.90;99.90;;;;;;5048605;28;20100;-83
2024/02/08 13:10:32;;;;;;;14.50;4.97;;;4.90;99.90;;;;;;5051078;28;20116;-81
2024/02/08 13:12:59;;;;;;;17.15;6.20;;;4.90;99.90;;;;;;5050589;28;20140;-82
2024/02/08 13:15:24;;;;;;;18.33;5.47;;;4.90;99.90;;;;;;5049796;28;20070;-80
2024/02/08 13:17:50;;;;;;;16.55;6.13;;;4.90;99.90;;;;;;5049792;28;20423;-81
2024/02/08 13:20:16;;;;;;;17.42;6.15;;;5.00;99.90;;;;;;5052065;28;20021;-89
2024/02/08 13:22:45;;;;;;;9.20;5.07;;;5.00;99.90;;;;;;5038975;28;20085;-89
2024/02/08 13:25:15;;;;;;;17.00;5.53;;;5.00;99.90;;;;;;5044782;28;20587;-87
2024/02/08 13:27:44;;;;;;;16.08;5.78;;;4.90;99.90;;;;;;5053518;28;20052;-87
2024/02/08 13:30:16;;;;;;;17.10;5.40;;;4.90;99.90;;;;;;5052339;28;20037;-85
2024/02/08 13:32:51;;;;;;;14.50;5.90;;;4.90;99.90;;;;;;5056326;28;20051;-87
2024/02/08 13:35:20;;;;;;;13.02;5.80;;;4.90;99.90;;;;;;5055756;28;20111;-85
2024/02/08 13:37:53;;;;;;;11.85;6.10;;;4.80;99.90;;;;;;5056079;28;20056;-85
2024/02/08 13:40:23;;;;;;;17.80;9.02;;;4.80;99.90;;;;;;5042911;28;20060;-86
2024/02/08 13:42:50;;;;;;;16.15;5.90;;;4.70;99.90;;;;;;5050695;28;20021;-85
2024/02/08 13:45:16;;;;;;;12.23;6.40;;;4.70;99.90;;;;;;5050867;28;20028;-87
2024/02/08 13:47:54;;;;;;;17.20;7.03;;;4.60;99.90;;;;;;5036439;28;20034;-89
2024/02/08 13:50:22;;;;;;;24.05;6.43;;;4.70;99.90;;;;;;5048871;28;20394;-89
2024/02/08 13:52:52;;;;;;;14.68;6.15;;;4.60;99.90;;;;;;5033912;28;20128;-85
2024/02/08 13:55:18;;;;;;;16.38;7.03;;;4.70;99.90;;;;;;5037481;28;20032;-85
2024/02/08 13:57:50;;;;;;;24.50;6.13;;;5.20;99.90;;;;;;5053242;28;20021;-87
2024/02/08 14:00:27;;;;;;;16.17;6.90;;;4.70;99.90;;;;;;5053337;28;20055;-86
2024/02/08 14:02:57;;;;;;;16.75;6.38;;;4.70;99.90;;;;;;5052645;28;20037;-84
2024/02/08 14:05:25;;;;;;;14.68;6.80;;;4.70;99.90;;;;;;5036764;28;20022;-85
2024/02/08 14:07:54;;;;;;;23.27;7.57;;;4.60;99.90;;;;;;5032828;28;20412;-84
2024/02/08 14:10:31;;;;;;;18.15;8.23;;;4.60;99.90;;;;;;5042423;28;20103;-89
2024/02/08 14:13:06;;;;;;;15.63;6.97;;;4.60;99.90;;;;;;5052555;28;20598;-90
2024/02/08 14:15:32;;;;;;;18.15;6.90;;;4.60;99.90;;;;;;5052880;28;20034;-89
2024/02/08 14:18:11;;;;;;;12.85;6.28;;;4.60;99.90;;;;;;5032638;28;20051;-87
2024/02/08 14:20:52;;;;;;;13.68;6.43;;;4.50;99.90;;;;;;5033218;28;20053;-89
2024/02/08 14:23:29;;;;;;;16.27;7.43;;;4.40;99.90;;;;;;5033643;28;20021;-87
2024/02/08 14:26:09;;;;;;;11.20;6.57;;;4.40;99.90;;;;;;5037057;28;20045;-88
2024/02/08 14:28:42;;;;;;;18.95;7.30;;;4.40;99.90;;;;;;5037987;28;20101;-88
2024/02/08 14:31:09;;;;;;;12.40;7.05;;;4.40;99.90;;;;;;5033217;28;20069;-88
2024/02/08 14:33:35;;;;;;;25.38;7.20;;;4.40;99.90;;;;;;5031898;28;20021;-87
2024/02/08 14:36:08;;;;;;;19.27;7.00;;;4.30;99.90;;;;;;5032842;28;20473;-86
2024/02/08 14:38:36;;;;;;;17.95;6.60;;;4.40;99.90;;;;;;5032797;28;20132;-87
2024/02/08 14:41:04;;;;;;;15.90;6.13;;;4.40;99.90;;;;;;5044497;28;20037;-88
2024/02/08 14:43:32;;;;;;;15.80;6.75;;;4.40;99.90;;;;;;5051856;28;20036;-87
2024/02/08 14:46:02;;;;;;;19.20;6.68;;;4.40;99.90;;;;;;5048911;28;20025;-88
2024/02/08 14:48:28;;;;;;;12.18;6.05;;;4.30;99.90;;;;;;5051900;28;20025;-88
2024/02/08 14:50:59;;;;;;;16.60;7.03;;;4.30;99.90;;;;;;5052155;28;20091;-87
2024/02/08 14:53:25;;;;;;;18.67;7.10;;;4.30;99.90;;;;;;5050543;28;20025;-86
2024/02/08 14:55:52;;;;;;;10.93;5.40;;;4.20;99.90;;;;;;5037631;28;20115;-88
2024/02/08 14:58:33;;;;;;;10.15;5.13;;;4.20;99.90;;;;;;5040802;28;20052;-84
2024/02/08 15:01:08;;;;;;;15.68;6.75;;;4.20;99.90;;;;;;5051590;28;20024;-86
2024/02/08 15:03:49;;;;;;;12.20;6.38;;;4.20;99.90;;;;;;5051550;28;20075;-84
2024/02/08 15:12:13;;;;;;;12.23;6.43;;;4.10;99.90;;;;;;5051754;28;20500;-83
2024/02/08 15:14:42;;;;;;;12.20;5.80;;;4.20;99.90;;;;;;5049219;28;20021;-83
2024/02/08 15:17:10;;;;;;;13.35;6.38;;;4.10;99.90;;;;;;5051397;28;20040;-82